createdAt,value
2023-01-04T00:00:16.382Z,7.25
2023-01-04T00:01:16.369Z,7.25
2023-01-04T00:02:16.392Z,7.28
2023-01-04T00:03:16.566Z,7.21
2023-01-04T00:04:16.300Z,7.20
2023-01-04T00:05:16.312Z,7.18
2023-01-04T00:06:16.276Z,7.15
2023-01-04T00:07:16.315Z,7.15
2023-01-04T00:08:16.251Z,7.15
2023-01-04T00:09:16.268Z,7.15
2023-01-04T00:10:16.228Z,7.14
2023-01-04T00:11:16.258Z,7.15
2023-01-04T00:12:16.210Z,7.17
2023-01-04T00:13:16.253Z,7.24
2023-01-04T00:14:16.183Z,7.28
2023-01-04T00:15:16.209Z,7.32
2023-01-04T00:16:16.261Z,7.35
2023-01-04T00:17:16.177Z,7.40
2023-01-04T00:18:16.156Z,7.42
2023-01-04T00:19:16.207Z,7.42
2023-01-04T00:20:16.140Z,7.43
2023-01-04T00:21:16.151Z,7.45
2023-01-04T00:22:16.112Z,7.47
2023-01-04T00:23:16.116Z,7.47
2023-01-04T00:24:16.082Z,7.43
2023-01-04T00:25:16.130Z,7.42
2023-01-04T00:26:16.063Z,7.45
2023-01-04T00:27:16.073Z,7.47
2023-01-04T00:28:16.044Z,7.45
2023-01-04T00:29:16.077Z,7.45
2023-01-04T00:30:16.020Z,7.50
2023-01-04T00:31:16.179Z,7.51
2023-01-04T00:32:16.005Z,7.48
2023-01-04T00:33:16.030Z,7.47
2023-01-04T00:34:15.982Z,7.45
2023-01-04T00:35:39.969Z,7.50
2023-01-04T00:36:15.977Z,7.51
2023-01-04T00:37:16.164Z,7.56
2023-01-04T00:38:15.953Z,7.58
2023-01-04T00:39:15.952Z,7.63
2023-01-04T00:40:15.926Z,7.61
2023-01-04T00:41:41.976Z,7.63
2023-01-04T00:42:15.908Z,7.66
2023-01-04T00:43:16.149Z,7.63
2023-01-04T00:44:15.897Z,7.72
2023-01-04T00:45:15.882Z,7.82
2023-01-04T00:46:15.895Z,7.82
2023-01-04T00:47:15.869Z,7.80
2023-01-04T00:48:15.843Z,7.80
2023-01-04T00:49:15.894Z,7.85
2023-01-04T00:50:15.814Z,7.97
2023-01-04T00:51:15.828Z,8.03
2023-01-04T00:52:15.811Z,7.95
2023-01-04T00:53:15.807Z,7.97
2023-01-04T00:54:15.832Z,7.98
2023-01-04T00:55:15.812Z,7.98
2023-01-04T00:56:15.764Z,8.03
2023-01-04T00:57:15.761Z,7.98
2023-01-04T00:58:15.750Z,7.94
2023-01-04T00:59:15.753Z,7.88
2023-01-04T01:00:15.738Z,7.91
2023-01-04T01:01:15.890Z,7.90
2023-01-04T01:02:15.913Z,7.90
2023-01-04T01:03:15.840Z,7.90
2023-01-04T01:04:15.758Z,7.88
2023-01-04T01:05:15.693Z,7.94
2023-01-04T01:06:15.644Z,8.00
2023-01-04T01:07:15.689Z,8.05
2023-01-04T01:08:15.632Z,8.05
2023-01-04T01:09:15.653Z,8.05
2023-01-04T01:10:15.608Z,8.08
2023-01-04T01:11:15.626Z,8.09
2023-01-04T01:12:15.624Z,8.09
2023-01-04T01:13:15.628Z,8.09
2023-01-04T01:14:15.573Z,8.15
2023-01-04T01:15:15.578Z,8.15
2023-01-04T01:16:15.632Z,8.09
2023-01-04T01:17:15.601Z,8.12
2023-01-04T01:18:15.526Z,8.18
2023-01-04T01:19:15.564Z,8.23
2023-01-04T01:20:15.504Z,8.19
2023-01-04T01:21:15.517Z,8.20
2023-01-04T01:22:15.491Z,8.20
2023-01-04T01:23:15.506Z,8.20
2023-01-04T01:24:15.494Z,8.24
2023-01-04T01:25:15.482Z,8.30
2023-01-04T01:26:15.458Z,8.33
2023-01-04T01:27:15.465Z,8.36
2023-01-04T01:28:15.429Z,8.41
2023-01-04T01:29:15.430Z,8.38
2023-01-04T01:30:15.426Z,8.51
2023-01-04T01:31:15.472Z,8.53
2023-01-04T01:32:15.409Z,8.51
2023-01-04T01:33:15.416Z,8.51
2023-01-04T01:34:15.385Z,8.52
2023-01-04T01:35:15.394Z,8.49
2023-01-04T01:36:15.345Z,8.52
2023-01-04T01:37:15.353Z,8.53
2023-01-04T01:38:15.357Z,8.51
2023-01-04T01:39:15.345Z,8.51
2023-01-04T01:40:15.303Z,8.48
2023-01-04T01:41:15.316Z,8.48
2023-01-04T01:42:15.282Z,8.52
2023-01-04T01:43:15.289Z,8.49
2023-01-04T01:44:15.253Z,8.51
2023-01-04T01:45:15.265Z,8.48
2023-01-04T01:46:15.352Z,8.52
2023-01-04T01:47:15.250Z,8.58
2023-01-04T01:48:15.210Z,8.60
2023-01-04T01:49:15.232Z,8.53
2023-01-04T01:50:15.188Z,8.53
2023-01-04T01:51:15.227Z,8.52
2023-01-04T01:52:15.186Z,8.53
2023-01-04T01:53:15.181Z,8.53
2023-01-04T01:54:15.162Z,8.55
2023-01-04T01:55:15.166Z,8.58
2023-01-04T01:56:15.132Z,8.58
2023-01-04T01:57:15.164Z,8.66
2023-01-04T01:58:15.115Z,8.66
2023-01-04T01:59:15.123Z,8.60
2023-01-04T02:00:15.102Z,8.55
2023-01-04T02:01:15.274Z,8.53
2023-01-04T02:02:15.186Z,8.53
2023-01-04T02:03:15.275Z,8.56
2023-01-04T02:04:15.092Z,8.58
2023-01-04T02:05:15.075Z,8.53
2023-01-04T02:06:15.027Z,8.45
2023-01-04T02:07:15.036Z,8.41
2023-01-04T02:08:15.036Z,8.36
2023-01-04T02:09:15.018Z,8.31
2023-01-04T02:10:15.010Z,8.33
2023-01-04T02:11:15.008Z,8.37
2023-01-04T02:12:14.964Z,8.46
2023-01-04T02:13:14.978Z,8.42
2023-01-04T02:14:14.956Z,8.41
2023-01-04T02:15:14.981Z,8.34
2023-01-04T02:16:15.029Z,8.30
2023-01-04T02:17:14.953Z,8.28
2023-01-04T02:18:14.913Z,8.20
2023-01-04T02:19:14.942Z,8.16
2023-01-04T02:20:14.881Z,8.19
2023-01-04T02:21:14.894Z,8.23
2023-01-04T02:22:14.887Z,8.26
2023-01-04T02:23:14.851Z,8.36
2023-01-04T02:24:14.875Z,8.37
2023-01-04T02:25:14.840Z,8.38
2023-01-04T02:26:14.962Z,8.33
2023-01-04T02:27:14.812Z,8.30
2023-01-04T02:28:14.820Z,8.34
2023-01-04T02:29:14.796Z,8.34
2023-01-04T02:30:14.837Z,8.31
2023-01-04T02:31:14.865Z,8.28
2023-01-04T02:32:14.778Z,8.27
2023-01-04T02:33:14.750Z,8.26
2023-01-04T02:34:14.760Z,8.23
2023-01-04T02:35:14.726Z,8.19
2023-01-04T02:36:14.757Z,8.26
2023-01-04T02:37:14.706Z,8.27
2023-01-04T02:38:14.721Z,8.30
2023-01-04T02:39:14.695Z,8.46
2023-01-04T02:40:14.708Z,8.48
2023-01-04T02:41:14.688Z,8.53
2023-01-04T02:42:14.678Z,8.58
2023-01-04T02:43:16.255Z,8.51
2023-01-04T02:44:14.657Z,8.48
2023-01-04T02:45:14.623Z,8.48
2023-01-04T02:46:14.735Z,8.48
2023-01-04T02:47:14.625Z,8.49
2023-01-04T02:48:14.613Z,8.44
2023-01-04T02:49:14.580Z,8.41
2023-01-04T02:50:14.596Z,8.44
2023-01-04T02:51:14.565Z,8.33
2023-01-04T02:52:14.602Z,8.30
2023-01-04T02:53:14.541Z,8.26
2023-01-04T02:54:14.559Z,8.24
2023-01-04T02:55:14.518Z,8.20
2023-01-04T02:56:14.539Z,8.30
2023-01-04T02:57:14.528Z,8.34
2023-01-04T02:58:14.520Z,8.37
2023-01-04T02:59:14.480Z,8.34
2023-01-04T03:00:14.501Z,8.37
2023-01-04T03:01:14.488Z,8.37
2023-01-04T03:02:14.547Z,8.41
2023-01-04T03:03:14.634Z,8.37
2023-01-04T03:04:14.448Z,8.31
2023-01-04T03:05:14.421Z,8.31
2023-01-04T03:06:14.432Z,8.34
2023-01-04T03:07:14.394Z,8.38
2023-01-04T03:08:14.405Z,8.37
2023-01-04T03:09:14.395Z,8.31
2023-01-04T03:10:14.396Z,8.26
2023-01-04T03:11:14.355Z,8.26
2023-01-04T03:12:14.383Z,8.20
2023-01-04T03:13:14.333Z,8.20
2023-01-04T03:14:31.849Z,8.26
2023-01-04T03:15:14.325Z,8.26
2023-01-04T03:16:14.352Z,8.19
2023-01-04T03:17:14.294Z,8.20
2023-01-04T03:18:14.305Z,8.24
2023-01-04T03:19:14.288Z,8.24
2023-01-04T03:20:14.294Z,8.24
2023-01-04T03:21:14.267Z,8.20
2023-01-04T03:22:14.277Z,8.33
2023-01-04T03:23:14.247Z,8.36
2023-01-04T03:24:14.245Z,8.37
2023-01-04T03:25:14.226Z,8.34
2023-01-04T03:26:14.225Z,8.33
2023-01-04T03:27:14.196Z,8.31
2023-01-04T03:28:14.206Z,8.37
2023-01-04T03:29:14.186Z,8.41
2023-01-04T03:30:14.183Z,8.44
2023-01-04T03:31:14.236Z,8.51
2023-01-04T03:32:14.164Z,8.61
2023-01-04T03:33:14.126Z,8.66
2023-01-04T03:34:14.137Z,8.63
2023-01-04T03:35:14.110Z,8.56
2023-01-04T03:36:14.149Z,8.61
2023-01-04T03:37:14.088Z,8.69
2023-01-04T03:38:14.109Z,8.67
2023-01-04T03:39:14.066Z,8.73
2023-01-04T03:40:14.074Z,8.84
2023-01-04T03:41:14.045Z,8.79
2023-01-04T03:42:14.060Z,8.78
2023-01-04T03:43:14.053Z,8.76
2023-01-04T03:44:14.041Z,8.78
2023-01-04T03:45:14.005Z,8.78
2023-01-04T03:46:14.088Z,8.81
2023-01-04T03:47:14.050Z,8.82
2023-01-04T03:48:14.007Z,8.78
2023-01-04T03:49:13.965Z,8.81
2023-01-04T03:50:13.974Z,8.79
2023-01-04T03:51:13.946Z,8.73
2023-01-04T03:52:13.970Z,8.76
2023-01-04T03:53:13.933Z,8.71
2023-01-04T03:54:13.956Z,8.71
2023-01-04T03:55:13.900Z,8.73
2023-01-04T03:56:13.933Z,8.74
2023-01-04T03:57:13.874Z,8.82
2023-01-04T03:58:13.910Z,8.81
2023-01-04T03:59:13.853Z,8.74
2023-01-04T04:00:13.873Z,8.84
2023-01-04T04:01:13.959Z,8.85
2023-01-04T04:02:14.122Z,8.82
2023-01-04T04:03:13.821Z,8.87
2023-01-04T04:04:13.902Z,8.84
2023-01-04T04:05:13.795Z,8.79
2023-01-04T04:06:13.800Z,8.84
2023-01-04T04:07:13.772Z,8.82
2023-01-04T04:08:13.787Z,8.78
2023-01-04T04:09:13.768Z,8.73
2023-01-04T04:10:13.770Z,8.63
2023-01-04T04:11:13.725Z,8.63
2023-01-04T04:12:13.753Z,8.70
2023-01-04T04:13:13.713Z,8.70
2023-01-04T04:14:13.726Z,8.76
2023-01-04T04:15:13.716Z,8.82
2023-01-04T04:16:13.760Z,8.84
2023-01-04T04:17:13.668Z,8.74
2023-01-04T04:18:13.697Z,8.71
2023-01-04T04:19:13.655Z,8.74
2023-01-04T04:20:13.726Z,8.74
2023-01-04T04:21:13.624Z,8.81
2023-01-04T04:22:13.644Z,8.79
2023-01-04T04:23:13.625Z,8.89
2023-01-04T04:24:13.616Z,8.88
2023-01-04T04:25:13.659Z,8.88
2023-01-04T04:26:13.618Z,8.88
2023-01-04T04:27:13.594Z,8.95
2023-01-04T04:28:13.558Z,9.03
2023-01-04T04:29:13.569Z,9.04
2023-01-04T04:30:13.536Z,9.02
2023-01-04T04:31:13.641Z,9.02
2023-01-04T04:32:13.577Z,9.00
2023-01-04T04:33:13.525Z,9.00
2023-01-04T04:34:13.489Z,8.99
2023-01-04T04:35:13.503Z,8.97
2023-01-04T04:36:13.473Z,9.04
2023-01-04T04:37:13.495Z,9.08
2023-01-04T04:38:13.448Z,9.11
2023-01-04T04:39:13.464Z,9.04
2023-01-04T04:40:13.435Z,9.03
2023-01-04T04:41:13.445Z,9.03
2023-01-04T04:42:13.430Z,9.02
2023-01-04T04:43:13.423Z,9.03
2023-01-04T04:44:13.386Z,8.99
2023-01-04T04:45:13.401Z,8.99
2023-01-04T04:46:13.436Z,9.00
2023-01-04T04:47:13.401Z,8.97
2023-01-04T04:48:13.363Z,8.92
2023-01-04T04:49:13.367Z,8.81
2023-01-04T04:50:13.331Z,8.69
2023-01-04T04:51:13.340Z,8.55
2023-01-04T04:52:13.303Z,8.48
2023-01-04T04:53:13.347Z,8.42
2023-01-04T04:54:13.296Z,8.34
2023-01-04T04:55:13.300Z,8.33
2023-01-04T04:56:13.275Z,8.41
2023-01-04T04:57:13.274Z,8.36
2023-01-04T04:58:13.270Z,8.38
2023-01-04T04:59:13.278Z,8.42
2023-01-04T05:00:13.224Z,8.48
2023-01-04T05:01:13.370Z,8.38
2023-01-04T05:02:13.394Z,8.38
2023-01-04T05:03:13.298Z,8.38
2023-01-04T05:04:13.207Z,8.51
2023-01-04T05:05:13.205Z,8.45
2023-01-04T05:06:13.169Z,8.44
2023-01-04T05:07:13.181Z,8.42
2023-01-04T05:08:13.136Z,8.46
2023-01-04T05:09:13.151Z,8.44
2023-01-04T05:10:13.144Z,8.44
2023-01-04T05:11:13.131Z,8.58
2023-01-04T05:12:13.094Z,8.66
2023-01-04T05:13:13.168Z,8.69
2023-01-04T05:14:13.076Z,8.70
2023-01-04T05:15:13.112Z,8.67
2023-01-04T05:16:13.089Z,8.70
2023-01-04T05:17:13.089Z,8.70
2023-01-04T05:18:13.050Z,8.70
2023-01-04T05:19:13.357Z,8.69
2023-01-04T05:20:13.022Z,8.74
2023-01-04T05:21:16.991Z,8.76
2023-01-04T05:22:13.003Z,8.76
2023-01-04T05:23:13.028Z,8.84
2023-01-04T05:24:12.972Z,8.88
2023-01-04T05:25:12.986Z,8.91
2023-01-04T05:26:12.987Z,8.91
2023-01-04T05:27:12.974Z,9.00
2023-01-04T05:28:12.936Z,8.94
2023-01-04T05:29:12.946Z,8.92
2023-01-04T05:30:12.921Z,8.91
2023-01-04T05:31:12.966Z,8.84
2023-01-04T05:32:12.971Z,8.82
2023-01-04T05:33:12.913Z,8.85
2023-01-04T05:34:17.085Z,8.82
2023-01-04T05:35:12.887Z,8.84
2023-01-04T05:36:12.864Z,8.91
2023-01-04T05:37:12.894Z,8.94
2023-01-04T05:38:12.841Z,8.94
2023-01-04T05:39:12.840Z,8.92
2023-01-04T05:40:12.831Z,8.92
2023-01-04T05:41:12.816Z,8.89
2023-01-04T05:42:12.788Z,8.87
2023-01-04T05:43:12.832Z,8.87
2023-01-04T05:44:12.769Z,8.87
2023-01-04T05:45:12.778Z,8.88
2023-01-04T05:46:12.760Z,8.99
2023-01-04T05:47:15.026Z,8.95
2023-01-04T05:48:12.748Z,8.99
2023-01-04T05:49:12.737Z,9.00
2023-01-04T05:50:12.725Z,9.03
2023-01-04T05:51:12.717Z,9.03
2023-01-04T05:52:12.688Z,9.04
2023-01-04T05:53:12.702Z,9.06
2023-01-04T05:54:16.466Z,9.10
2023-01-04T05:55:12.684Z,9.10
2023-01-04T05:56:12.639Z,9.23
2023-01-04T05:57:12.724Z,9.21
2023-01-04T05:58:12.619Z,9.19
2023-01-04T05:59:12.655Z,9.18
2023-01-04T06:00:12.612Z,9.18
2023-01-04T06:01:12.697Z,9.16
2023-01-04T06:02:12.750Z,9.13
2023-01-04T06:03:12.713Z,9.16
2023-01-04T06:04:12.758Z,9.13
2023-01-04T06:05:12.598Z,9.16
2023-01-04T06:06:12.540Z,9.21
2023-01-04T06:07:12.572Z,9.25
2023-01-04T06:08:12.542Z,9.19
2023-01-04T06:09:12.531Z,9.21
2023-01-04T06:10:12.543Z,9.18
2023-01-04T06:11:12.509Z,9.21
2023-01-04T06:12:12.476Z,9.23
2023-01-04T06:13:12.486Z,9.18
2023-01-04T06:14:12.473Z,9.22
2023-01-04T06:15:12.471Z,9.19
2023-01-04T06:16:12.452Z,9.14
2023-01-04T06:17:12.540Z,9.28
2023-01-04T06:18:13.716Z,9.26
2023-01-04T06:19:12.426Z,9.32
2023-01-04T06:20:12.416Z,9.39
2023-01-04T06:21:12.437Z,9.39
2023-01-04T06:22:12.385Z,9.36
2023-01-04T06:23:12.387Z,9.36
2023-01-04T06:24:12.358Z,9.36
2023-01-04T06:25:12.367Z,9.34
2023-01-04T06:26:12.332Z,9.39
2023-01-04T06:27:12.719Z,9.39
2023-01-04T06:28:12.308Z,9.32
2023-01-04T06:29:12.321Z,9.32
2023-01-04T06:30:12.298Z,9.36
2023-01-04T06:31:12.393Z,9.32
2023-01-04T06:32:12.308Z,9.32
2023-01-04T06:33:12.300Z,9.32
2023-01-04T06:34:12.253Z,9.28
2023-01-04T06:35:12.266Z,9.37
2023-01-04T06:36:19.232Z,9.43
2023-01-04T06:37:12.256Z,9.40
2023-01-04T06:38:12.240Z,9.36
2023-01-04T06:39:12.203Z,9.34
2023-01-04T06:40:12.210Z,9.40
2023-01-04T06:41:12.180Z,9.46
2023-01-04T06:42:12.189Z,9.51
2023-01-04T06:43:12.195Z,9.47
2023-01-04T06:44:12.165Z,9.46
2023-01-04T06:45:12.152Z,9.54
2023-01-04T06:46:12.226Z,9.51
2023-01-04T06:47:12.119Z,9.54
2023-01-04T06:48:12.127Z,9.48
2023-01-04T06:49:12.122Z,9.47
2023-01-04T06:50:12.155Z,9.48
2023-01-04T06:51:12.083Z,9.50
2023-01-04T06:52:12.102Z,9.44
2023-01-04T06:53:12.049Z,9.44
2023-01-04T06:54:12.092Z,9.46
2023-01-04T06:55:12.030Z,9.51
2023-01-04T06:56:12.046Z,9.55
2023-01-04T06:57:12.005Z,9.64
2023-01-04T06:58:12.026Z,9.61
2023-01-04T06:59:11.988Z,9.58
2023-01-04T07:00:12.030Z,9.56
2023-01-04T07:01:12.044Z,9.55
2023-01-04T07:02:12.091Z,9.55
2023-01-04T07:03:12.706Z,9.58
2023-01-04T07:04:12.007Z,9.61
2023-01-04T07:05:12.097Z,9.58
2023-01-04T07:06:11.938Z,9.61
2023-01-04T07:07:11.908Z,9.56
2023-01-04T07:08:11.916Z,9.55
2023-01-04T07:09:11.883Z,9.61
2023-01-04T07:10:11.963Z,9.62
2023-01-04T07:11:11.883Z,9.62
2023-01-04T07:12:11.883Z,9.64
2023-01-04T07:13:11.844Z,9.66
2023-01-04T07:14:11.851Z,9.72
2023-01-04T07:15:39.248Z,9.80
2023-01-04T07:16:12.148Z,9.73
2023-01-04T07:17:11.810Z,9.69
2023-01-04T07:18:11.883Z,9.66
2023-01-04T07:19:11.786Z,9.64
2023-01-04T07:20:11.807Z,9.65
2023-01-04T07:21:11.766Z,9.73
2023-01-04T07:22:11.781Z,9.73
2023-01-04T07:23:11.771Z,9.77
2023-01-04T07:24:11.759Z,9.80
2023-01-04T07:25:11.711Z,9.79
2023-01-04T07:26:11.748Z,9.74
2023-01-04T07:27:11.730Z,9.73
2023-01-04T07:28:11.761Z,9.72
2023-01-04T07:29:11.677Z,9.74
2023-01-04T07:30:11.689Z,9.73
2023-01-04T07:31:11.709Z,9.76
2023-01-04T07:32:13.962Z,9.80
2023-01-04T07:33:11.652Z,9.80
2023-01-04T07:34:11.644Z,9.77
2023-01-04T07:35:11.620Z,9.80
2023-01-04T07:36:11.648Z,9.83
2023-01-04T07:37:11.610Z,9.84
2023-01-04T07:38:11.655Z,9.86
2023-01-04T07:39:11.569Z,9.80
2023-01-04T07:40:11.618Z,9.82
2023-01-04T07:41:11.554Z,9.76
2023-01-04T07:42:11.571Z,9.72
2023-01-04T07:43:11.557Z,9.68
2023-01-04T07:44:11.583Z,9.59
2023-01-04T07:45:11.513Z,9.55
2023-01-04T07:46:11.627Z,9.55
2023-01-04T07:47:11.513Z,9.55
2023-01-04T07:48:11.500Z,9.51
2023-01-04T07:49:16.726Z,9.50
2023-01-04T07:50:11.516Z,9.54
2023-01-04T07:51:11.446Z,9.56
2023-01-04T07:52:11.509Z,9.58
2023-01-04T07:53:11.429Z,9.59
2023-01-04T07:54:11.443Z,9.62
2023-01-04T07:55:11.418Z,9.56
2023-01-04T07:56:16.870Z,9.61
2023-01-04T07:57:11.404Z,9.59
2023-01-04T07:58:11.396Z,9.56
2023-01-04T07:59:11.377Z,9.51
2023-01-04T08:00:11.418Z,9.47
2023-01-04T08:01:11.494Z,9.40
2023-01-04T08:02:11.460Z,9.37
2023-01-04T08:03:11.341Z,9.34
2023-01-04T08:04:11.420Z,9.23
2023-01-04T08:05:11.485Z,9.22
2023-01-04T08:06:11.365Z,9.19
2023-01-04T08:07:11.286Z,9.16
2023-01-04T08:08:11.309Z,9.11
2023-01-04T08:09:11.260Z,9.04
2023-01-04T08:10:11.281Z,9.10
2023-01-04T08:11:11.261Z,9.04
2023-01-04T08:12:11.264Z,9.03
2023-01-04T08:13:11.220Z,8.99
2023-01-04T08:14:11.235Z,8.95
2023-01-04T08:15:11.197Z,8.89
2023-01-04T08:16:11.234Z,8.88
2023-01-04T08:17:11.206Z,8.89
2023-01-04T08:18:11.194Z,8.89
2023-01-04T08:19:11.157Z,8.92
2023-01-04T08:20:11.175Z,8.94
2023-01-04T08:21:11.165Z,8.97
2023-01-04T08:22:11.179Z,8.95
2023-01-04T08:23:11.120Z,8.97
2023-01-04T08:24:11.146Z,8.97
2023-01-04T08:25:11.111Z,9.02
2023-01-04T08:26:11.129Z,9.04
2023-01-04T08:27:11.075Z,9.06
2023-01-04T08:28:11.120Z,9.10
2023-01-04T08:29:11.051Z,9.13
2023-01-04T08:30:11.064Z,9.11
2023-01-04T08:31:11.139Z,9.08
2023-01-04T08:32:11.057Z,9.10
2023-01-04T08:33:11.026Z,9.14
2023-01-04T08:34:11.041Z,9.13
2023-01-04T08:35:10.994Z,9.19
2023-01-04T08:36:11.010Z,9.18
2023-01-04T08:37:10.971Z,9.22
2023-01-04T08:38:47.241Z,9.25
2023-01-04T08:39:10.989Z,9.25
2023-01-04T08:40:10.961Z,9.29
2023-01-04T08:41:39.203Z,9.25
2023-01-04T08:42:21.999Z,9.29
2023-01-04T08:43:10.913Z,9.37
2023-01-04T08:44:10.957Z,9.41
2023-01-04T08:45:10.900Z,9.36
2023-01-04T08:46:10.921Z,9.41
2023-01-04T08:47:10.865Z,9.54
2023-01-04T08:48:10.878Z,9.51
2023-01-04T08:49:10.877Z,9.55
2023-01-04T08:50:11.249Z,9.51
2023-01-04T08:51:10.827Z,9.54
2023-01-04T08:52:10.838Z,9.54
2023-01-04T08:53:10.805Z,9.54
2023-01-04T08:54:10.820Z,9.61
2023-01-04T08:55:14.042Z,9.61
2023-01-04T08:56:10.796Z,9.68
2023-01-04T08:57:10.770Z,9.68
2023-01-04T08:58:10.778Z,9.68
2023-01-04T08:59:10.845Z,9.68
2023-01-04T09:00:10.768Z,9.65
2023-01-04T09:01:10.868Z,9.61
2023-01-04T09:02:10.863Z,9.64
2023-01-04T09:03:10.760Z,9.65
2023-01-04T09:04:10.876Z,9.68
2023-01-04T09:05:10.750Z,9.64
2023-01-04T09:06:10.735Z,9.66
2023-01-04T09:07:10.657Z,9.73
2023-01-04T09:08:10.674Z,9.72
2023-01-04T09:09:10.636Z,9.73
2023-01-04T09:10:10.653Z,9.77
2023-01-04T09:11:10.610Z,9.79
2023-01-04T09:12:10.639Z,9.74
2023-01-04T09:13:10.610Z,9.66
2023-01-04T09:14:10.661Z,9.66
2023-01-04T09:15:10.577Z,9.72
2023-01-04T09:16:10.759Z,9.76
2023-01-04T09:17:10.584Z,9.74
2023-01-04T09:18:31.754Z,9.77
2023-01-04T09:19:10.543Z,9.83
2023-01-04T09:20:10.545Z,9.79
2023-01-04T09:21:10.520Z,9.80
2023-01-04T09:22:10.587Z,9.77
2023-01-04T09:23:10.501Z,9.76
2023-01-04T09:24:10.504Z,9.76
2023-01-04T09:25:10.469Z,9.80
2023-01-04T09:26:10.494Z,9.82
2023-01-04T09:27:10.449Z,9.94
2023-01-04T09:28:10.521Z,9.98
2023-01-04T09:29:10.436Z,9.99
2023-01-04T09:30:10.479Z,10.01
2023-01-04T09:31:10.487Z,10.02
2023-01-04T09:32:16.361Z,10.04
2023-01-04T09:33:10.408Z,10.01
2023-01-04T09:34:16.040Z,10.10
2023-01-04T09:35:10.383Z,10.16
2023-01-04T09:36:10.375Z,10.23
2023-01-04T09:37:10.359Z,10.23
2023-01-04T09:38:10.354Z,10.20
2023-01-04T09:39:16.691Z,10.19
2023-01-04T09:40:10.355Z,10.17
2023-01-04T09:41:10.300Z,10.13
2023-01-04T09:42:10.313Z,10.13
2023-01-04T09:43:21.005Z,10.10
2023-01-04T09:44:10.301Z,10.15
2023-01-04T09:45:23.510Z,10.12
2023-01-04T09:46:10.358Z,10.22
2023-01-04T09:47:10.329Z,10.16
2023-01-04T09:48:10.257Z,10.19
2023-01-04T09:49:10.217Z,10.17
2023-01-04T09:50:10.238Z,10.15
2023-01-04T09:51:10.211Z,10.15
2023-01-04T09:52:10.220Z,10.13
2023-01-04T09:53:10.183Z,10.12
2023-01-04T09:54:10.188Z,10.13
2023-01-04T09:55:38.250Z,10.12
2023-01-04T09:56:10.183Z,10.07
2023-01-04T09:57:10.150Z,10.04
2023-01-04T09:58:10.157Z,10.01
2023-01-04T09:59:10.116Z,10.01
2023-01-04T10:00:10.129Z,10.04
2023-01-04T10:01:10.266Z,9.99
2023-01-04T10:02:10.364Z,10.01
2023-01-04T10:03:10.231Z,9.95
2023-01-04T10:04:10.085Z,9.97
2023-01-04T10:05:10.057Z,9.97
2023-01-04T10:06:10.072Z,9.97
2023-01-04T10:07:10.032Z,9.91
2023-01-04T10:08:10.050Z,9.89
2023-01-04T10:09:10.027Z,9.89
2023-01-04T10:10:10.022Z,9.89
2023-01-04T10:11:09.994Z,9.94
2023-01-04T10:12:10.007Z,9.94
2023-01-04T10:13:09.970Z,9.99
2023-01-04T10:14:10.003Z,9.99
2023-01-04T10:15:09.962Z,9.97
2023-01-04T10:16:10.083Z,9.89
2023-01-04T10:17:13.683Z,9.94
2023-01-04T10:19:36.826Z,9.98
2023-01-04T10:21:32.356Z,9.94
2023-01-04T10:22:10.527Z,9.89
2023-01-04T10:23:09.866Z,9.92
2023-01-04T10:24:09.892Z,9.95
2023-01-04T10:25:09.846Z,9.92
2023-01-04T10:26:09.876Z,9.91
2023-01-04T10:27:09.820Z,9.87
2023-01-04T10:28:09.850Z,9.86
2023-01-04T10:29:09.795Z,9.91
2023-01-04T10:30:09.823Z,10.01
2023-01-04T10:31:38.684Z,10.09
2023-01-04T10:32:09.849Z,10.05
2023-01-04T10:33:09.767Z,10.01
2023-01-04T10:34:12.746Z,10.01
2023-01-04T10:35:09.751Z,9.97
2023-01-04T10:36:09.756Z,10.01
2023-01-04T10:37:09.731Z,10.05
2023-01-04T10:38:09.743Z,10.12
2023-01-04T10:39:09.694Z,10.13
2023-01-04T10:40:09.717Z,10.12
2023-01-04T10:41:09.685Z,10.10
2023-01-04T10:42:09.716Z,10.09
2023-01-04T10:43:09.654Z,10.10
2023-01-04T10:44:14.348Z,10.16
2023-01-04T10:45:09.850Z,10.12
2023-01-04T10:46:09.644Z,10.16
2023-01-04T10:47:09.670Z,10.19
2023-01-04T10:48:09.627Z,10.22
2023-01-04T10:49:09.597Z,10.22
2023-01-04T10:50:09.661Z,10.26
2023-01-04T10:51:10.781Z,10.30
2023-01-04T10:52:09.606Z,10.34
2023-01-04T10:53:09.552Z,10.35
2023-01-04T10:54:09.544Z,10.35
2023-01-04T10:55:09.556Z,10.35
2023-01-04T10:56:25.507Z,10.33
2023-01-04T10:57:09.556Z,10.30
2023-01-04T10:58:09.503Z,10.26
2023-01-04T10:59:09.514Z,10.22
2023-01-04T11:00:09.486Z,10.17
2023-01-04T11:01:09.595Z,10.16
2023-01-04T11:02:09.681Z,10.10
2023-01-04T11:03:09.966Z,10.10
2023-01-04T11:04:09.462Z,10.05
2023-01-04T11:05:09.462Z,10.04
2023-01-04T11:06:09.461Z,10.10
2023-01-04T11:07:09.437Z,10.07
2023-01-04T11:08:09.426Z,10.07
2023-01-04T11:09:12.392Z,10.05
2023-01-04T11:10:09.389Z,10.07
2023-01-04T11:11:09.393Z,10.10
2023-01-04T11:12:09.350Z,10.07
2023-01-04T11:13:09.370Z,10.09
2023-01-04T11:14:09.346Z,10.09
2023-01-04T11:15:09.361Z,10.05
2023-01-04T11:16:09.388Z,10.07
2023-01-04T11:17:09.336Z,10.09
2023-01-04T11:18:09.330Z,10.12
2023-01-04T11:19:09.314Z,10.13
2023-01-04T11:20:09.299Z,10.12
2023-01-04T11:21:09.296Z,10.13
2023-01-04T11:22:09.431Z,10.16
2023-01-04T11:23:09.359Z,10.20
2023-01-04T11:24:31.055Z,10.19
2023-01-04T11:25:35.058Z,10.19
2023-01-04T11:26:09.245Z,10.20
2023-01-04T11:27:09.239Z,10.17
2023-01-04T11:28:09.203Z,10.16
2023-01-04T11:29:09.207Z,10.17
2023-01-04T11:30:09.187Z,10.19
2023-01-04T11:31:09.524Z,10.23
2023-01-04T11:32:09.245Z,10.23
2023-01-04T11:33:09.168Z,10.28
2023-01-04T11:34:09.129Z,10.28
2023-01-04T11:35:09.159Z,10.26
2023-01-04T11:36:09.116Z,10.25
2023-01-04T11:37:09.122Z,10.22
2023-01-04T11:38:09.117Z,10.25
2023-01-04T11:39:09.164Z,10.28
2023-01-04T11:40:09.076Z,10.30
2023-01-04T11:41:09.074Z,10.30
2023-01-04T11:42:09.042Z,10.31
2023-01-04T11:43:09.062Z,10.30
2023-01-04T11:44:09.038Z,10.26
2023-01-04T11:45:09.033Z,10.28
2023-01-04T11:46:09.177Z,10.30
2023-01-04T11:47:09.015Z,10.33
2023-01-04T11:48:14.448Z,10.26
2023-01-04T11:49:09.003Z,10.30
2023-01-04T11:50:08.977Z,10.26
2023-01-04T11:51:13.781Z,10.35
2023-01-04T11:52:08.942Z,10.37
2023-01-04T11:53:08.963Z,10.42
2023-01-04T11:54:08.926Z,10.40
2023-01-04T11:55:08.929Z,10.46
2023-01-04T11:56:08.949Z,10.41
2023-01-04T11:57:11.788Z,10.44
2023-01-04T11:58:08.871Z,10.40
2023-01-04T11:59:08.895Z,10.41
2023-01-04T12:00:08.881Z,10.40
2023-01-04T12:01:08.908Z,10.42
2023-01-04T12:02:09.004Z,10.41
2023-01-04T12:03:08.850Z,10.41
2023-01-04T12:04:08.811Z,10.42
2023-01-04T12:05:08.829Z,10.42
2023-01-04T12:06:08.789Z,10.42
2023-01-04T12:07:08.808Z,10.41
2023-01-04T12:08:08.791Z,10.41
2023-01-04T12:09:08.787Z,10.38
2023-01-04T12:10:08.760Z,10.42
2023-01-04T12:11:08.762Z,10.42
2023-01-04T12:12:15.534Z,10.48
2023-01-04T12:13:08.745Z,10.53
2023-01-04T12:14:08.757Z,10.49
2023-01-04T12:15:08.766Z,10.49
2023-01-04T12:16:08.706Z,10.56
2023-01-04T12:17:08.704Z,10.56
2023-01-04T12:18:08.665Z,10.54
2023-01-04T12:19:08.686Z,10.53
2023-01-04T12:20:14.652Z,10.49
2023-01-04T12:21:08.670Z,10.54
2023-01-04T12:22:08.621Z,10.56
2023-01-04T12:23:08.640Z,10.53
2023-01-04T12:24:08.610Z,10.53
2023-01-04T12:25:08.636Z,10.49
2023-01-04T12:26:08.606Z,10.51
2023-01-04T12:27:08.604Z,10.51
2023-01-04T12:28:08.565Z,10.41
2023-01-04T12:29:08.581Z,10.48
2023-01-04T12:30:08.543Z,10.48
2023-01-04T12:31:09.744Z,10.46
2023-01-04T12:32:08.543Z,10.44
2023-01-04T12:33:08.541Z,10.48
2023-01-04T12:34:08.506Z,10.51
2023-01-04T12:35:08.524Z,10.48
2023-01-04T12:36:08.478Z,10.48
2023-01-04T12:37:08.492Z,10.54
2023-01-04T12:38:08.473Z,10.54
2023-01-04T12:39:08.463Z,10.53
2023-01-04T12:40:08.436Z,10.53
2023-01-04T12:41:08.460Z,10.53
2023-01-04T12:42:08.436Z,10.57
2023-01-04T12:43:08.431Z,10.56
2023-01-04T12:44:08.414Z,10.53
2023-01-04T12:45:08.434Z,10.49
2023-01-04T12:46:08.459Z,10.51
2023-01-04T12:47:08.387Z,10.51
2023-01-04T12:48:08.357Z,10.53
2023-01-04T12:49:08.372Z,10.54
2023-01-04T12:50:08.351Z,10.53
2023-01-04T12:51:30.058Z,10.54
2023-01-04T12:53:29.480Z,10.54
2023-01-04T12:54:08.303Z,10.56
2023-01-04T12:55:08.302Z,10.57
2023-01-04T12:56:08.294Z,10.57
2023-01-04T12:57:08.286Z,10.56
2023-01-04T12:58:08.259Z,10.61
2023-01-04T12:59:25.087Z,10.60
2023-01-04T13:00:08.249Z,10.60
2023-01-04T13:01:08.366Z,10.60
2023-01-04T13:02:08.408Z,10.57
2023-01-04T13:03:08.535Z,10.57
2023-01-04T13:04:08.248Z,10.54
2023-01-04T13:05:54.270Z,10.57
2023-01-04T13:06:08.188Z,10.56
2023-01-04T13:07:08.180Z,10.56
2023-01-04T13:08:08.167Z,10.59
2023-01-04T13:09:08.173Z,10.56
2023-01-04T13:10:08.183Z,10.60
2023-01-04T13:11:08.283Z,10.60
2023-01-04T13:12:08.123Z,10.60
2023-01-04T13:13:08.152Z,10.61
2023-01-04T13:14:08.094Z,10.61